Time;durP1;ratioP1;P1;durP2;ratioP2;P2;SDS_P1;SDS_P2;PMS_P1;PMS_P2;Temp;Humidity;BMP_temperature;BMP_pressure;BME280_temperature;BME280_humidity;BME280_pressure;Samples;Min_cycle;Max_cycle;Signal;HPM_P1;HPM_P2
2021/04/13 00:02:14;;;;;;;7.80;4.00;;;;;;;2.24;65.13;101189.19;10505118;28;20121;-68
2021/04/13 00:07:16;;;;;;;3.53;3.20;;;;;;;2.37;64.47;101193.78;10509200;28;20557;-68
2021/04/13 00:12:25;;;;;;;4.57;3.95;;;;;;;2.28;64.89;101199.66;10506842;28;20132;-67
2021/04/13 00:17:31;;;;;;;5.40;3.40;;;;;;;2.46;64.37;101196.56;10506156;28;20048;-69
2021/04/13 00:22:34;;;;;;;4.47;3.47;;;;;;;2.54;64.06;101201.91;10505981;28;20048;-68
2021/04/13 00:27:35;;;;;;;4.55;3.45;;;;;;;2.53;64.00;101197.56;10507100;28;20047;-68
2021/04/13 00:32:45;;;;;;;4.18;3.78;;;;;;;2.37;64.19;101203.28;10507105;28;20398;-68
2021/04/13 00:37:47;;;;;;;4.32;4.00;;;;;;;2.30;64.77;101201.41;10507193;28;20036;-68
2021/04/13 00:42:50;;;;;;;3.60;3.30;;;;;;;2.13;65.42;101212.31;10507472;28;20040;-66
2021/04/13 00:47:53;;;;;;;4.20;3.80;;;;;;;2.06;65.59;101204.38;10502715;28;20041;-67
2021/04/13 00:52:58;;;;;;;4.03;3.63;;;;;;;1.81;66.61;101209.00;10503081;28;20051;-67
2021/04/13 00:58:16;;;;;;;4.95;4.45;;;;;;;1.80;66.59;101215.03;10502300;28;20071;-67
2021/04/13 01:03:18;;;;;;;4.75;4.22;;;;;;;1.57;66.96;101206.72;10500504;28;20055;-67
2021/04/13 01:08:31;;;;;;;4.70;4.30;;;;;;;1.70;67.21;101207.91;10501645;28;20045;-67
2021/04/13 01:13:56;;;;;;;5.15;4.45;;;;;;;1.45;67.26;101209.03;10502348;28;20051;-68
2021/04/13 01:19:24;;;;;;;4.50;4.10;;;;;;;1.35;67.90;101210.53;10503129;28;20079;-66
2021/04/13 01:24:31;;;;;;;4.88;4.38;;;;;;;1.38;68.02;101204.56;10485491;28;20107;-66
2021/04/13 01:29:33;;;;;;;4.90;4.35;;;;;;;1.36;67.99;101207.09;10503417;28;20064;-69
2021/04/13 01:34:41;;;;;;;4.60;4.20;;;;;;;1.30;68.33;101206.94;10505068;28;20124;-67
2021/04/13 01:39:49;;;;;;;5.20;4.57;;;;;;;1.25;68.34;101203.38;10505429;28;20044;-69
2021/04/13 01:44:54;;;;;;;6.93;5.20;;;;;;;1.34;67.87;101216.56;10510666;28;20076;-67
2021/04/13 01:49:59;;;;;;;5.03;4.63;;;;;;;1.27;68.60;101214.63;10510954;28;20044;-68
2021/04/13 01:55:08;;;;;;;5.70;4.65;;;;;;;1.68;67.66;101219.94;10510867;28;20497;-68
2021/04/13 02:00:39;;;;;;;5.18;4.68;;;;;;;1.69;67.21;101225.16;10509857;28;20037;-67
2021/04/13 02:05:46;;;;;;;4.95;4.53;;;;;;;1.83;66.91;101222.88;10508637;28;20537;-67
2021/04/13 02:11:06;;;;;;;4.45;4.03;;;;;;;1.79;66.55;101223.66;10510239;28;20041;-68
2021/04/13 02:16:38;;;;;;;5.13;4.70;;;;;;;1.99;66.34;101216.31;10510118;28;20526;-67
2021/04/13 02:21:41;;;;;;;4.53;4.13;;;;;;;1.74;66.97;101230.47;10506680;28;20057;-68
2021/04/13 02:26:46;;;;;;;4.80;4.50;;;;;;;1.81;66.80;101231.47;10508296;28;20045;-67
2021/04/13 02:31:56;;;;;;;6.25;5.10;;;;;;;1.71;66.77;101235.56;10490299;28;20044;-67
2021/04/13 02:37:06;;;;;;;5.38;4.85;;;;;;;1.92;66.61;101233.47;10505974;28;20056;-67
2021/04/13 02:42:28;;;;;;;5.60;4.80;;;;;;;1.93;66.50;101237.81;10501672;28;20044;-66
2021/04/13 02:47:31;;;;;;;5.35;4.90;;;;;;;1.92;66.05;101233.47;10501499;28;20045;-67
2021/04/13 02:52:41;;;;;;;5.30;4.80;;;;;;;1.98;66.19;101241.38;10507929;28;20040;-67
2021/04/13 02:57:45;;;;;;;5.53;5.03;;;;;;;2.03;65.99;101241.47;10506278;28;20090;-67
2021/04/13 03:02:51;;;;;;;6.00;5.43;;;;;;;1.90;66.05;101249.81;10507908;28;20115;-67
2021/04/13 03:07:56;;;;;;;5.80;5.20;;;;;;;1.88;66.34;101257.56;10505968;28;20071;-67
2021/04/13 03:13:05;;;;;;;5.07;4.57;;;;;;;1.97;65.90;101257.78;10506493;28;20094;-67
2021/04/13 03:18:13;;;;;;;5.55;5.05;;;;;;;2.04;65.63;101253.63;10508356;28;20135;-68
2021/04/13 03:23:18;;;;;;;6.22;4.97;;;;;;;1.93;66.38;101257.69;10510048;28;20090;-68
2021/04/13 03:28:29;;;;;;;4.60;4.20;;;;;;;1.93;66.00;101262.84;10509326;28;20045;-69
2021/04/13 03:33:33;;;;;;;5.40;4.95;;;;;;;2.01;66.19;101267.38;10511361;28;20482;-69
2021/04/13 03:38:37;;;;;;;5.45;5.05;;;;;;;1.90;66.19;101266.25;10511304;28;20040;-68
2021/04/13 03:43:39;;;;;;;5.80;5.30;;;;;;;1.93;66.05;101266.31;10509941;28;20036;-70
2021/04/13 03:48:46;;;;;;;6.35;5.75;;;;;;;2.06;65.74;101270.06;10511520;28;20098;-67
2021/04/13 03:53:48;;;;;;;6.00;5.50;;;;;;;1.99;66.15;101271.69;10510864;28;20036;-69
2021/04/13 03:58:55;;;;;;;5.75;5.35;;;;;;;1.90;66.34;101276.63;10509027;28;20131;-67
2021/04/13 04:04:01;;;;;;;6.80;6.30;;;;;;;2.01;65.88;101271.69;10507530;28;20041;-68
2021/04/13 04:09:21;;;;;;;7.70;6.90;;;;;;;1.70;67.04;101275.28;10509026;28;20448;-69
2021/04/13 04:14:26;;;;;;;7.50;6.80;;;;;;;1.71;66.76;101280.50;10507950;28;20463;-69
2021/04/13 04:19:29;;;;;;;7.20;6.65;;;;;;;1.83;66.41;101281.66;10508532;28;20110;-69
2021/04/13 04:24:43;;;;;;;7.15;6.45;;;;;;;1.75;66.47;101278.88;10510100;28;20040;-70
2021/04/13 04:29:48;;;;;;;7.43;6.82;;;;;;;1.67;66.94;101290.75;10511587;28;20045;-70
2021/04/13 04:34:52;;;;;;;8.00;7.22;;;;;;;1.65;67.18;101290.72;10513587;28;20494;-68
2021/04/13 04:40:18;;;;;;;7.25;6.65;;;;;;;2.00;65.51;101295.88;10493994;28;20044;-69
2021/04/13 04:45:31;;;;;;;7.85;7.15;;;;;;;1.87;66.19;101302.50;10512319;28;20402;-69
2021/04/13 04:50:32;;;;;;;7.65;7.05;;;;;;;2.00;65.74;101301.06;10511015;28;20072;-70
2021/04/13 04:55:34;;;;;;;9.07;7.90;;;;;;;1.98;65.79;101301.00;10507419;28;20106;-69
2021/04/13 05:00:35;;;;;;;8.63;7.93;;;;;;;2.14;65.05;101307.44;10508426;28;20461;-68
2021/04/13 05:05:36;;;;;;;8.98;8.30;;;;;;;2.24;64.78;101306.81;10506498;28;20040;-70
2021/04/13 05:10:38;;;;;;;9.40;8.50;;;;;;;2.07;65.74;101321.09;10502065;28;20036;-70
2021/04/13 05:15:39;;;;;;;8.57;7.80;;;;;;;2.35;64.49;101314.84;10502692;28;20042;-69
2021/04/13 05:20:40;;;;;;;8.75;8.00;;;;;;;2.26;65.27;101319.84;10503652;28;20476;-70
2021/04/13 05:25:42;;;;;;;8.55;7.90;;;;;;;2.41;64.89;101314.97;10503248;28;20037;-69
2021/04/13 05:30:44;;;;;;;9.82;8.90;;;;;;;2.51;64.48;101319.50;10501631;28;20040;-69
2021/04/13 05:35:45;;;;;;;8.18;7.18;;;;;;;2.60;64.57;101323.16;10504474;28;20424;-70
2021/04/13 05:40:47;;;;;;;8.23;7.53;;;;;;;2.65;64.05;101329.31;10485582;28;20482;-69
2021/04/13 05:45:49;;;;;;;8.23;7.53;;;;;;;2.69;63.87;101331.13;10503324;28;20474;-70
2021/04/13 05:50:52;;;;;;;8.68;7.97;;;;;;;2.83;63.27;101334.88;10502868;28;20458;-69
2021/04/13 05:55:54;;;;;;;10.55;8.30;;;;;;;2.90;63.29;101336.75;10502383;28;20041;-68
2021/04/13 06:00:57;;;;;;;8.18;7.47;;;;;;;2.81;64.05;101336.59;10502736;28;20104;-69
2021/04/13 06:05:59;;;;;;;9.05;8.30;;;;;;;2.93;63.89;101342.03;10501434;28;20041;-70
2021/04/13 06:11:00;;;;;;;9.13;8.32;;;;;;;3.25;62.66;101344.38;10500268;28;20072;-69
2021/04/13 06:16:04;;;;;;;8.95;8.15;;;;;;;3.22;63.54;101352.09;10502799;28;20041;-71
2021/04/13 06:21:06;;;;;;;9.73;8.93;;;;;;;3.18;63.50;101351.16;10503030;28;20482;-69
2021/04/13 06:26:07;;;;;;;8.27;7.47;;;;;;;3.13;63.56;101362.31;10507681;28;20071;-69
2021/04/13 06:31:09;;;;;;;8.77;7.90;;;;;;;3.39;62.83;101358.50;10511423;28;20102;-68
2021/04/13 06:36:15;;;;;;;8.45;7.75;;;;;;;3.83;60.86;101350.63;10508821;28;20052;-69
2021/04/13 06:41:44;;;;;;;9.32;8.65;;;;;;;3.70;61.70;101356.47;10507682;28;20045;-70
2021/04/13 06:46:54;;;;;;;14.50;13.30;;;;;;;3.78;60.74;101366.16;10509656;28;20044;-69
2021/04/13 06:52:19;;;;;;;11.82;10.82;;;;;;;4.01;61.32;101363.91;10509896;28;20040;-70
2021/04/13 06:57:31;;;;;;;10.35;7.88;;;;;;;4.49;59.66;101368.13;10508159;28;20048;-68
2021/04/13 07:02:45;;;;;;;8.77;7.88;;;;;;;4.85;59.19;101361.66;10507337;28;20115;-69
2021/04/13 07:07:57;;;;;;;8.38;7.57;;;;;;;5.39;58.24;101357.94;10508316;28;20044;-69
2021/04/13 07:13:08;;;;;;;8.85;7.68;;;;;;;5.29;56.83;101351.75;10507975;28;20045;-68
2021/04/13 07:18:22;;;;;;;8.10;7.40;;;;;;;5.17;58.31;101363.78;10507681;28;20040;-69
2021/04/13 07:23:24;;;;;;;8.45;7.80;;;;;;;5.35;57.25;101360.50;10506932;28;20563;-69
2021/04/13 07:28:38;;;;;;;9.10;7.75;;;;;;;4.92;59.03;101370.44;10505669;28;20049;-70
2021/04/13 07:33:39;;;;;;;6.43;5.78;;;;;;;5.27;58.04;101356.09;10508360;28;20409;-71
2021/04/13 07:38:44;;;;;;;6.03;5.47;;;;;;;6.03;54.94;101358.59;10507736;28;20509;-70
2021/04/13 07:44:04;;;;;;;6.53;6.03;;;;;;;5.48;57.12;101362.38;10507598;28;20098;-70
2021/04/13 07:49:14;;;;;;;6.38;5.78;;;;;;;5.85;56.88;101368.84;10507517;28;20052;-71
2021/04/13 07:54:36;;;;;;;6.25;5.65;;;;;;;5.73;56.52;101371.34;10506580;28;20060;-70
2021/04/13 07:59:53;;;;;;;6.63;5.97;;;;;;;5.61;56.41;101368.59;10506120;28;20517;-69
2021/04/13 08:04:57;;;;;;;5.73;5.23;;;;;;;5.89;55.99;101368.00;10505577;28;20040;-71
2021/04/13 08:10:12;;;;;;;6.88;6.28;;;;;;;5.75;56.48;101377.44;10504955;28;20490;-71
2021/04/13 08:15:18;;;;;;;7.00;5.00;;;;;;;5.43;57.54;101375.38;10503947;28;20075;-70
2021/04/13 08:20:29;;;;;;;8.77;5.78;;;;;;;5.86;56.40;101375.81;10504971;28;20063;-70
2021/04/13 08:25:45;;;;;;;5.57;5.10;;;;;;;5.43;56.54;101372.78;10486530;28;20048;-70
2021/04/13 08:36:45;;;;;;;7.28;4.32;;;;;;;6.06;55.77;101374.28;10502063;28;20044;-70
2021/04/13 08:41:58;;;;;;;4.70;4.00;;;;;;;6.48;53.88;101366.75;10502588;28;20090;-70
2021/04/13 08:47:30;;;;;;;5.00;4.60;;;;;;;6.42;55.11;101367.56;10502802;28;20063;-68
2021/04/13 08:52:52;;;;;;;4.72;4.20;;;;;;;6.20;55.74;101365.69;10374264;28;20058;-72
2021/04/13 08:58:20;;;;;;;3.67;3.38;;;;;;;6.54;52.63;101361.53;10374495;28;20100;-69
2021/04/13 09:03:27;;;;;;;3.58;3.22;;;;;;;6.38;53.04;101359.72;10374527;28;20058;-70
2021/04/13 09:08:41;;;;;;;6.45;3.58;;;;;;;6.77;52.89;101359.94;10375166;28;20057;-69
2021/04/13 09:13:52;;;;;;;4.45;3.58;;;;;;;6.75;52.78;101364.28;10373668;28;20069;-70
2021/04/13 09:19:00;;;;;;;3.97;3.55;;;;;;;6.89;52.57;101364.34;10360951;28;20563;-70
2021/04/13 09:24:27;;;;;;;5.47;3.50;;;;;;;7.00;53.41;101361.78;10350731;28;20046;-68
2021/04/13 09:29:54;;;;;;;5.57;3.20;;;;;;;6.98;51.05;101364.38;10468626;28;20098;-71
2021/04/13 09:35:17;;;;;;;4.90;3.22;;;;;;;6.92;51.45;101363.50;10467287;28;20045;-70
2021/04/13 09:40:36;;;;;;;3.25;2.75;;;;;;;7.16;50.75;101352.25;10460046;28;20052;-71
2021/04/13 09:45:52;;;;;;;3.10;2.30;;;;;;;7.26;51.15;101354.00;10459216;28;20041;-70
2021/04/13 09:51:17;;;;;;;3.00;2.58;;;;;;;7.62;48.55;101342.78;10460098;28;20076;-70
2021/04/13 09:56:37;;;;;;;2.40;2.20;;;;;;;7.97;49.20;101334.94;10460316;28;20128;-70
2021/04/13 10:02:01;;;;;;;2.85;2.03;;;;;;;8.17;47.14;101334.91;10465014;28;20052;-68
2021/04/13 10:07:25;;;;;;;4.00;1.98;;;;;;;7.64;47.05;101333.16;10466442;28;20394;-69
2021/04/13 10:12:57;;;;;;;2.17;1.85;;;;;;;8.29;46.93;101331.41;10467588;28;20044;-72
2021/04/13 10:18:06;;;;;;;2.17;1.50;;;;;;;9.26;44.28;101324.97;10469732;28;20041;-70
2021/04/13 10:24:02;;;;;;;3.00;1.60;;;;;;;8.90;42.63;101317.25;10468934;28;20037;-69
2021/04/13 10:29:33;;;;;;;2.10;1.80;;;;;;;7.97;46.47;101318.31;10467639;28;20041;-70
2021/04/13 10:35:00;;;;;;;1.35;0.90;;;;;;;8.25;44.54;101317.44;10466120;28;20090;-70
2021/04/13 10:40:22;;;;;;;2.80;1.10;;;;;;;8.35;45.17;101307.81;10467041;28;20037;-69
2021/04/13 10:45:45;;;;;;;2.72;2.00;;;;;;;7.96;45.15;101321.81;10466930;28;20037;-70
2021/04/13 10:51:31;;;;;;;3.22;1.60;;;;;;;7.74;45.09;101321.81;10468236;28;20045;-69
2021/04/13 10:56:56;;;;;;;2.78;2.03;;;;;;;7.80;47.73;101314.00;10449871;28;20060;-70
2021/04/13 11:02:44;;;;;;;7.22;2.00;;;;;;;8.32;45.34;101320.91;10468468;28;20095;-71
2021/04/13 11:08:09;;;;;;;1.67;1.40;;;;;;;8.47;45.26;101302.56;10482940;28;20124;-70
2021/04/13 11:13:41;;;;;;;4.05;1.75;;;;;;;8.80;43.10;101308.56;10467505;28;20041;-71
2021/04/13 11:18:56;;;;;;;4.20;2.25;;;;;;;8.55;42.75;101313.03;10468544;28;20071;-71
2021/04/13 11:24:16;;;;;;;3.00;2.05;;;;;;;8.16;45.44;101303.50;10467935;28;20376;-71
2021/04/13 11:29:47;;;;;;;3.55;2.28;;;;;;;7.88;46.93;101305.25;10470180;28;20063;-70
2021/04/13 11:34:59;;;;;;;2.70;1.40;;;;;;;7.98;47.00;101299.16;10468308;28;20041;-72
2021/04/13 11:40:28;;;;;;;2.33;1.38;;;;;;;8.61;45.15;101293.78;10468517;28;20518;-72
2021/04/13 11:46:11;;;;;;;2.40;1.50;;;;;;;8.13;45.49;101295.63;10466644;28;20045;-72
2021/04/13 11:51:15;;;;;;;2.67;2.05;;;;;;;7.67;47.20;101298.28;10467786;28;20041;-71
2021/04/13 11:56:23;;;;;;;2.38;1.23;;;;;;;7.76;46.30;101290.44;10467775;28;20414;-72
2021/04/13 12:01:24;;;;;;;;;;;;;;;8.48;45.25;101278.09;10468162;28;20478;-71
2021/04/13 12:06:58;;;;;;;4.25;1.70;;;;;;;9.09;42.01;101276.97;10468066;28;19921;-72
2021/04/13 12:11:59;;;;;;;4.20;1.30;;;;;;;8.54;44.57;101275.47;10467691;28;20065;-70
2021/04/13 12:17:05;;;;;;;3.25;1.50;;;;;;;7.81;44.93;101280.81;10467345;28;20076;-69
2021/04/13 12:22:34;;;;;;;3.67;1.63;;;;;;;8.61;42.58;101262.34;10465529;28;20045;-71
2021/04/13 12:27:35;;;;;;;2.83;1.33;;;;;;;8.39;41.72;101257.16;10465979;28;20483;-72
2021/04/13 12:32:44;;;;;;;2.95;1.20;;;;;;;8.30;43.83;101260.66;10462869;28;20041;-72
2021/04/13 12:37:47;;;;;;;2.92;1.20;;;;;;;8.11;43.90;101260.72;10463086;28;20494;-72
2021/04/13 12:42:51;;;;;;;2.65;1.00;;;;;;;8.40;43.96;101239.69;10461293;28;20047;-70
2021/04/13 12:48:15;;;;;;;2.30;1.58;;;;;;;8.40;44.17;101237.06;10463020;28;20083;-70
2021/04/13 12:53:20;;;;;;;2.58;1.65;;;;;;;8.52;44.00;101245.78;10467124;28;20045;-71
2021/04/13 12:58:21;;;;;;;2.35;1.30;;;;;;;9.14;43.57;101232.34;10465742;28;20040;-71
2021/04/13 13:03:30;;;;;;;3.42;1.40;;;;;;;9.01;44.75;101232.41;10465773;28;20052;-70
2021/04/13 13:08:31;;;;;;;2.13;0.93;;;;;;;8.76;45.21;101233.41;10465839;28;20049;-71
2021/04/13 13:13:35;;;;;;;1.63;0.80;;;;;;;8.50;43.99;101229.19;10464322;28;20041;-72
2021/04/13 13:18:42;;;;;;;2.17;1.00;;;;;;;9.04;42.06;101228.91;10465585;28;20045;-71
2021/04/13 13:23:52;;;;;;;2.22;0.95;;;;;;;8.97;43.51;101219.31;10466489;28;20123;-71
2021/04/13 13:28:53;;;;;;;2.25;0.50;;;;;;;8.96;42.20;101209.72;10464160;28;20090;-71
2021/04/13 13:34:00;;;;;;;2.58;0.50;;;;;;;8.50;42.88;101216.09;10464905;28;20056;-70
2021/04/13 13:39:20;;;;;;;1.23;0.63;;;;;;;8.50;41.08;101217.81;10462563;28;20052;-71
2021/04/13 13:44:25;;;;;;;1.90;0.90;;;;;;;8.41;41.11;101210.91;10461818;28;20045;-71
2021/04/13 13:49:39;;;;;;;3.28;0.95;;;;;;;7.99;42.61;101204.88;10460869;28;20562;-71
2021/04/13 13:54:41;;;;;;;3.83;1.00;;;;;;;8.22;44.32;101198.69;10463098;28;20033;-69
2021/04/13 13:59:50;;;;;;;1.95;1.00;;;;;;;8.45;43.21;101189.00;10460820;28;20106;-69
2021/04/13 14:05:07;;;;;;;3.47;1.27;;;;;;;8.39;42.78;101194.28;10461415;28;20049;-70
2021/04/13 14:10:16;;;;;;;3.78;1.10;;;;;;;7.90;43.76;101191.81;10461955;28;20040;-69
2021/04/13 14:15:23;;;;;;;2.95;1.33;;;;;;;7.82;44.73;101181.34;10462562;28;20124;-69
2021/04/13 14:20:24;;;;;;;4.05;1.25;;;;;;;7.88;45.02;101183.09;10461705;28;20041;-68
2021/04/13 14:25:26;;;;;;;3.78;1.42;;;;;;;8.17;44.67;101182.13;10461221;28;20033;-70
2021/04/13 14:30:29;;;;;;;3.30;1.20;;;;;;;8.37;43.89;101169.88;10460539;28;20059;-69
2021/04/13 14:35:30;;;;;;;2.72;1.20;;;;;;;8.23;44.63;101169.00;10473936;28;20048;-69
2021/04/13 14:40:32;;;;;;;6.75;5.97;;;;;;;8.04;45.92;101176.91;10470148;28;20059;-70
2021/04/13 14:45:34;;;;;;;3.85;1.75;;;;;;;7.86;46.75;101161.28;10507742;28;20040;-70
2021/04/13 14:50:38;;;;;;;3.25;1.83;;;;;;;7.76;47.85;101162.19;10487062;28;20040;-69
2021/04/13 14:55:41;;;;;;;5.38;1.50;;;;;;;7.79;46.96;101156.91;10470757;28;20102;-69
2021/04/13 15:00:44;;;;;;;2.72;1.50;;;;;;;7.92;45.56;101152.53;10470543;28;20045;-69
2021/04/13 15:05:46;;;;;;;2.88;1.50;;;;;;;8.26;44.25;101150.66;10475010;28;20058;-69
2021/04/13 15:10:48;;;;;;;3.42;1.13;;;;;;;7.99;44.61;101143.78;10510065;28;20052;-69
2021/04/13 15:15:49;;;;;;;3.40;1.55;;;;;;;8.59;44.36;101152.28;10509672;28;20043;-69
2021/04/13 15:20:53;;;;;;;3.30;1.10;;;;;;;8.17;45.24;101150.69;10509056;28;20080;-69
2021/04/13 15:25:54;;;;;;;4.22;1.40;;;;;;;8.17;44.81;101154.19;10509210;28;20040;-69
2021/04/13 15:30:55;;;;;;;3.13;1.45;;;;;;;7.99;45.32;101135.94;10509834;28;20048;-70
2021/04/13 15:36:00;;;;;;;1.98;1.67;;;;;;;8.08;45.75;101138.50;10509619;28;20070;-70
2021/04/13 15:41:07;;;;;;;4.43;1.80;;;;;;;8.07;45.44;101136.78;10509224;28;20482;-70
2021/04/13 15:46:17;;;;;;;4.00;1.70;;;;;;;8.00;46.10;101127.19;10509255;28;20036;-69
2021/04/13 15:51:22;;;;;;;3.58;1.60;;;;;;;7.86;45.78;101132.47;10508425;28;20055;-71
2021/04/13 15:56:23;;;;;;;6.07;1.40;;;;;;;7.36;44.95;101129.97;10509990;28;20490;-69
2021/04/13 16:01:26;;;;;;;3.78;1.70;;;;;;;7.48;45.36;101130.84;10509998;28;20449;-70
2021/04/13 16:06:31;;;;;;;3.55;2.22;;;;;;;7.67;44.56;101123.81;10509222;28;20048;-69
2021/04/13 16:11:38;;;;;;;4.38;2.25;;;;;;;7.66;45.17;101118.56;10509085;28;20100;-70
2021/04/13 16:16:42;;;;;;;4.97;2.25;;;;;;;7.61;45.16;101115.97;10506937;28;20136;-69
2021/04/13 16:21:45;;;;;;;5.13;1.75;;;;;;;7.75;45.08;101123.81;10501048;22;20048;-63
2021/04/13 16:26:50;;;;;;;5.53;2.47;;;;;;;7.68;46.32;101122.06;10458423;28;20052;-64
2021/04/13 16:31:55;;;;;;;5.45;2.35;;;;;;;7.28;47.67;101137.81;10492577;28;20044;-65
2021/04/13 16:36:58;;;;;;;5.63;3.03;;;;;;;7.01;49.65;101146.53;10499921;28;20115;-63
2021/04/13 16:42:06;;;;;;;3.25;1.90;;;;;;;6.65;50.82;101139.53;10499286;28;20480;-63
2021/04/13 16:47:12;;;;;;;2.97;1.63;;;;;;;6.65;50.46;101132.56;10498808;28;20071;-65
2021/04/13 16:52:17;;;;;;;2.22;1.52;;;;;;;6.62;50.16;101126.44;10498762;28;20041;-64
2021/04/13 16:57:19;;;;;;;2.17;1.30;;;;;;;6.73;50.21;101133.44;10498193;28;20038;-63
2021/04/13 17:02:41;;;;;;;2.95;1.20;;;;;;;6.60;50.16;101134.31;10498232;28;20079;-64
2021/04/13 17:08:10;;;;;;;3.58;1.52;;;;;;;6.61;49.91;101135.16;10498329;28;20402;-64
2021/04/13 17:13:34;;;;;;;2.38;1.20;;;;;;;6.25;50.12;101140.28;10498667;28;20068;-64
2021/04/13 17:18:41;;;;;;;2.10;1.40;;;;;;;6.38;50.09;101138.59;10498627;28;20052;-63
2021/04/13 17:23:45;;;;;;;1.35;0.80;;;;;;;6.28;50.80;101142.03;10497734;28;20123;-64
2021/04/13 17:28:53;;;;;;;1.95;1.40;;;;;;;6.22;50.80;101137.66;10457175;28;20152;-65
2021/04/13 17:33:55;;;;;;;1.95;0.90;;;;;;;6.15;50.53;101140.22;10438372;28;20041;-64
2021/04/13 17:39:04;;;;;;;6.40;3.13;;;;;;;6.19;51.22;101134.16;10453031;28;20453;-64
2021/04/13 17:44:19;;;;;;;2.70;1.40;;;;;;;6.18;50.98;101137.63;10450876;28;20052;-64
2021/04/13 17:49:22;;;;;;;1.83;1.10;;;;;;;6.03;51.59;101136.72;10411402;28;20046;-65
2021/04/13 17:54:24;;;;;;;1.30;1.00;;;;;;;5.97;51.61;101143.63;10414955;28;20368;-64
2021/04/13 17:59:26;;;;;;;3.22;1.35;;;;;;;5.64;53.03;101142.56;10415048;28;20065;-64
2021/04/13 18:04:38;;;;;;;3.80;1.38;;;;;;;5.87;52.53;101145.28;10419715;28;20055;-64
2021/04/13 18:09:46;;;;;;;4.05;1.50;;;;;;;5.94;51.50;101138.44;10430792;28;20090;-65
2021/04/13 18:14:56;;;;;;;4.20;1.65;;;;;;;5.89;51.73;101145.28;10438346;28;20044;-65
2021/04/13 18:20:10;;;;;;;9.30;2.03;;;;;;;5.39;53.46;101154.56;10457051;28;20036;-65
2021/04/13 18:25:17;;;;;;;5.65;1.40;;;;;;;5.68;52.53;101164.34;10462760;28;20033;-63
2021/04/13 18:30:26;;;;;;;5.30;2.83;;;;;;;5.72;52.43;101164.34;10445288;28;20053;-64
2021/04/13 18:35:36;;;;;;;3.25;1.88;;;;;;;5.62;53.00;101166.88;10463074;28;20132;-64
2021/04/13 18:40:46;;;;;;;3.72;1.95;;;;;;;5.55;53.35;101166.84;10462433;28;20099;-64
2021/04/13 18:45:49;;;;;;;3.05;1.58;;;;;;;5.53;53.73;101170.31;10444736;28;20049;-64
2021/04/13 18:51:06;;;;;;;4.00;1.63;;;;;;;5.42;54.14;101169.38;10444489;28;20067;-64
2021/04/13 18:56:18;;;;;;;3.28;1.65;;;;;;;5.43;54.53;101168.50;10462081;28;20049;-64
2021/04/13 19:01:32;;;;;;;2.58;1.60;;;;;;;5.30;55.20;101178.81;10462004;28;20041;-64
2021/04/13 19:07:08;;;;;;;3.20;1.77;;;;;;;5.24;55.53;101185.75;10461607;28;20087;-66
2021/04/13 19:12:17;;;;;;;4.07;2.30;;;;;;;5.13;56.19;101183.03;10456933;28;20403;-65
2021/04/13 19:17:27;;;;;;;3.20;2.53;;;;;;;5.14;55.85;101186.53;10461944;28;20087;-64
2021/04/13 19:22:48;;;;;;;3.85;1.92;;;;;;;5.03;56.47;101200.31;10461357;28;20056;-64
2021/04/13 19:27:53;;;;;;;5.05;2.58;;;;;;;5.07;56.64;101196.00;10461435;28;20128;-65
2021/04/13 19:33:01;;;;;;;6.78;5.60;;;;;;;5.03;56.57;101189.03;10460134;28;20119;-64
2021/04/13 19:38:12;;;;;;;5.25;3.35;;;;;;;4.93;56.99;101189.81;10461367;28;20111;-64
2021/04/13 19:43:20;;;;;;;5.10;3.33;;;;;;;4.94;57.29;101184.59;10459862;28;20045;-65
2021/04/13 19:48:34;;;;;;;7.07;3.28;;;;;;;4.80;57.50;101184.47;10460201;28;20127;-64
2021/04/13 19:53:43;;;;;;;4.03;2.58;;;;;;;4.77;57.69;101188.75;10459643;28;20037;-65
2021/04/13 19:58:48;;;;;;;3.83;2.78;;;;;;;4.68;57.97;101194.75;10459415;28;20049;-64
2021/04/13 20:03:55;;;;;;;5.30;2.75;;;;;;;4.63;58.55;101193.81;10457461;28;20080;-63
2021/04/13 20:08:57;;;;;;;7.18;2.58;;;;;;;4.61;58.65;101203.38;10459829;28;20055;-64
2021/04/13 20:14:06;;;;;;;6.05;2.53;;;;;;;4.55;58.55;101198.94;10459211;28;20095;-64
2021/04/13 20:19:16;;;;;;;3.85;2.25;;;;;;;4.44;58.81;101197.97;10458594;28;20052;-63
2021/04/13 20:24:28;;;;;;;9.82;2.42;;;;;;;4.58;58.53;101200.72;10440737;28;20041;-65
2021/04/13 20:29:36;;;;;;;5.45;2.25;;;;;;;4.54;58.61;101204.13;10460099;28;20447;-65
2021/04/13 20:39:58;;;;;;;4.00;1.75;;;;;;;4.32;59.01;101203.00;10459186;28;20052;-64
2021/04/13 20:45:02;;;;;;;2.78;1.55;;;;;;;4.38;59.04;101212.63;10457331;28;20037;-64
2021/04/13 20:50:13;;;;;;;2.90;1.92;;;;;;;4.32;59.48;101204.75;10457465;28;20041;-64
2021/04/13 20:55:27;;;;;;;5.78;1.77;;;;;;;4.00;60.38;101206.06;10457808;28;20082;-64
2021/04/13 21:00:35;;;;;;;3.60;1.58;;;;;;;4.25;59.52;101198.56;10458377;28;20056;-65
2021/04/13 21:05:47;;;;;;;3.90;1.30;;;;;;;4.33;59.39;101207.34;10457993;28;20052;-64
2021/04/13 21:10:54;;;;;;;5.00;1.48;;;;;;;4.32;59.15;101209.94;10456990;28;20458;-64
2021/04/13 21:16:03;;;;;;;3.03;1.70;;;;;;;4.03;59.69;101200.91;10457617;28;20090;-64
2021/04/13 21:21:12;;;;;;;2.35;1.30;;;;;;;4.03;59.60;101207.84;10457107;28;20048;-64
2021/04/13 21:26:20;;;;;;;4.65;1.98;;;;;;;3.92;59.90;101210.28;10456276;28;20041;-63
2021/04/13 21:31:44;;;;;;;3.75;1.67;;;;;;;3.88;60.16;101202.41;10438722;28;20051;-64
2021/04/13 21:36:49;;;;;;;5.97;1.75;;;;;;;3.86;59.82;101205.00;10457131;28;20407;-63
2021/04/13 21:41:54;;;;;;;5.05;2.28;;;;;;;3.53;60.58;101213.16;10457612;28;20410;-65
2021/04/13 21:47:22;;;;;;;3.55;1.80;;;;;;;3.45;60.84;101220.88;10457437;28;20041;-65
2021/04/13 21:52:45;;;;;;;5.10;1.90;;;;;;;3.57;60.83;101217.56;10457227;28;20053;-64
2021/04/13 21:57:53;;;;;;;4.45;1.60;;;;;;;3.64;60.06;101219.41;10465988;28;20084;-65
2021/04/13 22:03:00;;;;;;;3.92;1.70;;;;;;;3.75;59.72;101211.78;10465674;28;20041;-65
2021/04/13 22:08:04;;;;;;;6.57;1.48;;;;;;;3.64;60.02;101223.75;10465297;28;20504;-64
2021/04/13 22:13:07;;;;;;;3.50;1.17;;;;;;;3.35;61.09;101224.13;10464361;28;20041;-65
2021/04/13 22:18:20;;;;;;;3.42;1.50;;;;;;;3.46;60.56;101217.41;10464696;28;20041;-64
2021/04/13 22:23:32;;;;;;;3.83;1.60;;;;;;;3.19;61.34;101211.75;10464602;28;20391;-64
2021/04/13 22:28:34;;;;;;;3.03;1.48;;;;;;;3.37;61.08;101208.59;10465241;28;20143;-64
2021/04/13 22:33:41;;;;;;;4.18;1.33;;;;;;;3.16;61.35;101204.78;10517961;22;20118;-68
2021/04/13 22:38:58;;;;;;;3.35;1.50;;;;;;;3.29;61.32;101211.06;10514463;28;20044;-68
2021/04/13 22:44:02;;;;;;;3.10;1.38;;;;;;;3.04;62.07;101209.75;10507813;28;20135;-69
2021/04/13 22:49:04;;;;;;;2.58;1.15;;;;;;;3.16;61.64;101211.69;10513778;28;20509;-67
2021/04/13 22:54:15;;;;;;;3.75;1.30;;;;;;;2.98;62.36;101204.47;10510048;28;20075;-68
2021/04/13 22:59:20;;;;;;;2.15;1.35;;;;;;;3.13;62.46;101209.03;10514039;28;20052;-68
2021/04/13 23:04:21;;;;;;;5.35;1.85;;;;;;;3.02;63.19;101201.94;10513947;28;20067;-67
2021/04/13 23:09:22;;;;;;;2.95;1.40;;;;;;;3.17;62.87;101205.66;10512520;28;20102;-68
2021/04/13 23:14:24;;;;;;;3.30;1.70;;;;;;;3.09;63.26;101202.03;10511247;28;20044;-68
2021/04/13 23:19:25;;;;;;;3.40;1.98;;;;;;;3.03;63.09;101208.88;10510045;28;20052;-68
2021/04/13 23:24:27;;;;;;;3.42;1.90;;;;;;;2.98;63.30;101210.53;10507814;28;20075;-67
2021/04/13 23:29:28;;;;;;;1.98;1.77;;;;;;;2.77;64.03;101205.81;10508257;28;20455;-67
2021/04/13 23:34:30;;;;;;;4.65;1.70;;;;;;;2.91;63.28;101207.78;10507597;28;20087;-66
2021/04/13 23:39:31;;;;;;;3.63;1.70;;;;;;;2.91;63.16;101202.59;10498246;28;20409;-67
2021/04/13 23:44:32;;;;;;;5.68;2.10;;;;;;;2.75;63.94;101201.44;10506409;28;20048;-67
2021/04/13 23:49:34;;;;;;;3.47;1.67;;;;;;;2.56;64.23;101205.38;10497906;28;20044;-67
2021/04/13 23:54:36;;;;;;;4.47;2.08;;;;;;;2.58;64.38;101197.66;10498010;28;20347;-67
2021/04/13 23:59:37;;;;;;;5.75;2.15;;;;;;;2.49;64.74;101199.22;10497149;28;20396;-67
